Tiempo atmosférico en la estación meteorológica de Belmonte, Cuenca (800 m.)



Fecha
DESCASC
Temp. máxima en grados centígrados (hora)
DESCASC
Temp. mínima en grados centígrados (hora)
DESCASC
Temp. media en grados centígrados
DESCASC
Racha de viento máxima en m/sg (hora)
DESCASC
Velocidad máxima media en intervalos de 10 minutos(hora)
DESCASC
Precipitaciones diarias en mm
DESCASC
Precipitaciones de 00:00 a 06:00 en mm
DESCASC
Precipitaciones de 06:00 a 12:00 en mm
DESCASC
Precipitaciones de 12:00 a 18:00 en mm
DESCASC
Precipitaciones de 18:00 a 24:00 en mm
DESCASC
13-06-2019 26.6 (17:50) 13.5 (02:40) 20.1 13.89 (01:00) 7.22 (03:30) -- -- -- -- --
12-06-2019 26.5 (18:30) 9.5 (06:30) 18 11.67 (23:10) 7.22 (23:40) -- -- -- -- --
11-06-2019 22.1 (15:50) 10.5 (06:40) 16.3 10.28 (15:00) 5 (15:20) -- -- -- -- --
10-06-2019 27.6 (17:20) 11.3 (06:50) 19.5 9.17 (15:00) 4.17 (18:50) -- -- -- -- --
09-06-2019 28.8 (16:10) 13.9 (00:00) 21.3 11.11 (00:40) 6.39 (01:50) -- -- -- -- --
08-06-2019 25.7 (16:30) 14.1 (00:00) 19.9 14.72 (15:50) 8.33 (11:40) -- -- -- -- --
07-06-2019 24.1 (18:20) 12.9 (00:00) 18.5 9.17 (09:50) 4.44 (09:50) -- -- -- -- --
06-06-2019 26.6 (17:20) 8 (00:00) 17.3 11.11 (18:20) 4.72 (18:20) -- -- -- -- --
05-06-2019 22.8 (16:40) 13.1 (00:00) 17.9 11.39 (12:50) 5.83 (12:50) -- -- -- -- --
04-06-2019 31.7 (16:40) 15.6 (00:00) 23.7 11.94 (16:00) 4.44 (15:10) -- -- -- -- --
03-06-2019 33.7 (15:50) 18 (00:00) 25.9 8.89 (04:50) 4.72 (04:50) -- -- -- -- --
02-06-2019 33.2 (16:10) 15.5 (00:00) 24.4 10.28 (02:50) 6.39 (02:50) -- -- -- -- --
01-06-2019 30.8 (17:10) 14.3 (00:00) 22.5 10.28 (01:30) 5.83 (01:30) -- -- -- -- --
31-05-2019 28.7 (17:30) 14.1 (00:00) 21.4 9.72 (16:00) 5 (23:59) -- -- -- -- --
30-05-2019 28 (18:10) 10.9 (00:00) 19.4 8.06 (13:30) 3.61 (09:30) -- -- -- -- --
29-05-2019 27 (17:40) 10.2 (00:00) 18.6 9.44 (20:30) 4.72 (20:30) -- -- -- -- --
28-05-2019 27.5 (16:00) 13.7 (00:00) 20.6 8.89 (19:00) 4.44 (19:20) -- -- -- -- --
27-05-2019 29.1 (17:20) 10.9 (00:00) 20 9.72 (16:40) 4.44 (16:40) -- -- -- -- --
26-05-2019 26.2 (18:20) 9.8 (00:00) 18 9.17 (16:20) 4.44 (15:10) -- -- -- -- --
25-05-2019 25.7 (16:20) 9.9 (00:00) 17.8 8.89 (21:00) 3.33 (17:10) -- -- -- -- --
24-05-2019 24.9 (14:00) 14.5 (00:00) 19.7 13.61 (15:30) 6.11 (15:20) -- -- -- -- --
23-05-2019 29 (17:40) 14.3 (00:00) 21.7 6.67 (15:10) 2.78 (05:10) -- -- -- -- --
22-05-2019 27.7 (17:20) 12.4 (00:00) 20.1 9.17 (00:40) 5.28 (03:10) -- -- -- -- --
21-05-2019 -- (--) -- (--) -- -- (--) -- (--) -- -- -- -- --
20-05-2019 25 (16:30) 5.7 (08:00) 15.3 8.06 (17:00) 3.61 (17:00) -- -- -- -- --
19-05-2019 23.1 (18:50) 5.3 (00:00) 14.2 6.67 (15:20) 3.61 (19:20) -- -- -- -- --
18-05-2019 21.4 (18:40) 9.5 (00:00) 15.4 8.89 (12:20) 3.89 (14:20) -- -- -- -- --
17-05-2019 20 (00:00) 9.5 (00:00) 14.8 13.89 (01:20) 7.22 (13:40) -- -- -- -- --

Gráficas

Temp. máximas Temp. mínimas Temp. medias Precipitaciones Rachas de viento máximas Velocidades máximas media en intervalos de 10 minutos

Datos horarios

Fecha y hora oficial Temperatura (ºC) Velocidad del viento (km/h) Dirección del viento Racha (km/h) Dirección de racha Precipitación (mm) Presión (hPa) Tendencia (hPa) Humedad (%)
2019-06-15 23:00:00 19.6 4 Nordeste 8 Nordeste 0 -- -- 29
2019-06-15 22:00:00 21.5 3 Nordeste 6 Este 0 -- -- 27
2019-06-15 21:00:00 23.3 4 Noroeste 13 Noroeste 0 -- -- 25
2019-06-15 20:00:00 24.7 5 Noroeste 18 Noroeste 0 -- -- 23
2019-06-15 19:00:00 26.6 8 Noroeste 19 Noroeste 0 -- -- 22
2019-06-15 18:00:00 26.3 8 Noroeste 21 Oeste 0 -- -- 23
2019-06-15 17:00:00 25.6 6 Oeste 21 Sudoeste 0 -- -- 25
2019-06-15 16:00:00 24.7 8 Oeste 20 Noroeste 0 -- -- 26
2019-06-15 15:00:00 24.4 8 Noroeste 22 Noroeste 0 -- -- 28
2019-06-15 14:00:00 23 7 Noroeste 18 Noroeste 0 -- -- 30
2019-06-15 13:00:00 21.7 8 Oeste 21 Noroeste 0 -- -- 33
2019-06-15 12:00:00 20.8 8 Oeste 26 Oeste 0 -- -- 35
2019-06-15 11:00:00 19.6 5 Oeste 18 Oeste 0 -- -- 38
2019-06-15 10:00:00 17.4 5 Oeste 14 Sudoeste 0 -- -- 46
2019-06-15 09:00:00 14.4 3 Noroeste 7 Noroeste 0 -- -- 52
2019-06-15 08:00:00 9.9 0 Calma 4 Nordeste 0 -- -- 63
2019-06-15 07:00:00 9.5 0 Calma 5 Nordeste 0 -- -- 60
2019-06-15 06:00:00 10 3 Nordeste 6 Este 0 -- -- 57
2019-06-15 05:00:00 10.9 2 Este 5 Este 0 -- -- 54
2019-06-15 04:00:00 12.5 0 Calma 5 Sur 0 -- -- 50
2019-06-15 03:00:00 13.5 0 Calma 6 Oeste 0 -- -- 47
2019-06-15 02:00:00 14.3 0 Calma 5 Sur 0 -- -- 44
2019-06-15 01:00:00 15.7 2 Oeste 9 Oeste 0 -- -- 40
2019-06-15 00:00:00 17.1 4 Oeste 18 Noroeste 0 -- -- 38
2019-06-14 23:00:00 18.6 8 Oeste 20 Noroeste 0 -- -- 35
2019-06-14 22:00:00 20.5 6 Noroeste 23 Sudoeste 0 -- -- 31
2019-06-14 21:00:00 22.5 10 Oeste 31 Oeste 0 -- -- 27
2019-06-14 20:00:00 24 13 Oeste 34 Sudoeste 0 -- -- 27
2019-06-14 19:00:00 25.8 14 Oeste 38 Sudoeste 0 -- -- 25
2019-06-14 18:00:00 26.4 13 Oeste 42 Oeste 0 -- -- 25
2019-06-14 17:00:00 26.5 15 Oeste 41 Oeste 0 -- -- 26
2019-06-14 16:00:00 26.7 15 Oeste 39 Oeste 0 -- -- 26
2019-06-14 15:00:00 26.1 14 Sudoeste 40 Sudoeste 0 -- -- 26
2019-06-14 14:00:00 25 14 Sudoeste 37 Oeste 0 -- -- 34
2019-06-14 13:00:00 24.4 14 Sudoeste 32 Oeste 0 -- -- 32
2019-06-14 12:00:00 23.6 9 Oeste 34 Sudeste 0 -- -- 33
2019-06-14 11:00:00 22.6 8 Oeste 20 Oeste 0 -- -- 34
2019-06-14 10:00:00 19.9 5 Noroeste 11 Noroeste 0 -- -- 47
2019-06-14 09:00:00 16.3 2 Sudoeste 5 Sudoeste 0 -- -- 69
2019-06-14 08:00:00 14.8 0 Calma 5 Sur 0 -- -- 73
2019-06-14 07:00:00 14.9 3 Sur 4 Sudeste 0 -- -- 71
2019-06-14 06:00:00 15.5 3 Sudeste 19 Este 0 -- -- 69
2019-06-14 05:00:00 15.8 12 Sudeste 27 Sudeste 0 -- -- 69
2019-06-14 04:00:00 15.9 13 Sudeste 31 Sudeste 0 -- -- 69
2019-06-14 03:00:00 16.1 21 Sudeste 35 Este 0 -- -- 69
2019-06-14 02:00:00 16.7 17 Sudeste 38 Sudeste 0 -- -- 68
2019-06-14 01:00:00 17.2 19 Sudeste 38 Sudeste 0 -- -- 66
2019-06-14 00:00:00 18.3 22 Sudeste 39 Sudeste 0 -- -- 63
2019-06-13 23:00:00 19.5 19 Sudeste 36 Sudeste 0 -- -- 58
2019-06-13 22:00:00 20.9 14 Sudeste 35 Este 0 -- -- 55
2019-06-13 21:00:00 23.2 19 Sudeste 32 Este 0 -- -- 48
2019-06-13 20:00:00 25.6 9 Sudeste 26 Sudeste 0 -- -- 40
2019-06-13 19:00:00 26.3 9 Sudeste 26 Sudeste 0 -- -- 38
2019-06-13 18:00:00 26.6 10 Sudeste 27 Sur 0 -- -- 37
2019-06-13 17:00:00 25.6 11 Sudeste 27 Sudeste 0 -- -- 39
2019-06-13 16:00:00 24.5 16 Sudeste 37 Sudeste 0 -- -- 41
2019-06-13 15:00:00 24.5 15 Sudeste 36 Sudeste 0 -- -- 42
2019-06-13 14:00:00 23.4 18 Sudeste 38 Este 0 -- -- 44
2019-06-13 13:00:00 22 21 Sudeste 40 Sudeste 0 -- -- 48
2019-06-13 12:00:00 21.1 18 Sudeste 43 Este 0 -- -- 52
2019-06-13 11:00:00 19.9 19 Sudeste 40 Sudeste 0 -- -- 56
2019-06-13 10:00:00 17.7 20 Sudeste 39 Sudeste 0 -- -- 64
2019-06-13 09:00:00 16.1 23 Sudeste 40 Sudeste 0 -- -- 70
2019-06-13 08:00:00 14.2 18 Sudeste 35 Sudeste 0 -- -- 78
2019-06-13 07:00:00 13.6 18 Sudeste 39 Este 0 -- -- 80
2019-06-13 06:00:00 13.7 19 Sudeste 39 Sudeste 0 -- -- 79
2019-06-13 05:00:00 13.7 23 Sudeste 45 Sudeste 0 -- -- 81
2019-06-13 04:00:00 13.7 25 Sudeste 45 Sudeste 0 -- -- 82
2019-06-13 03:00:00 13.5 24 Sudeste 42 Este 0 -- -- 81
2019-06-13 02:00:00 13.9 23 Sudeste 42 Sudeste 0 -- -- 74
2019-06-13 01:00:00 15.2 22 Sudeste 50 Este 0 -- -- 59
2019-06-13 00:00:00 17 23 Sudeste 42 Este 0 -- -- 57
2019-06-12 23:00:00 18.5 20 Sudeste 39 Este 0 -- -- 51
2019-06-12 22:00:00 21.6 16 Sudeste 28 Sur 0 -- -- 41
2019-06-12 21:00:00 23.9 4 Oeste 19 Sudoeste 0 -- -- 23
2019-06-12 20:00:00 24.9 7 Oeste 27 Sudoeste 0 -- -- 21
2019-06-12 19:00:00 26.4 7 Oeste 26 Sudoeste 0 -- -- 19
2019-06-12 18:00:00 25.9 8 Sudoeste 29 Sudoeste 0 -- -- 18
2019-06-12 17:00:00 25.6 8 Sudoeste 26 Sudoeste 0 -- -- 19
2019-06-12 16:00:00 24.9 11 Sudoeste 35 Sudoeste 0 -- -- 22
2019-06-12 15:00:00 23.5 6 Oeste 23 Sudoeste 0 -- -- 26
2019-06-12 14:00:00 22.2 6 Sudoeste 23 Sur 0 -- -- 29
2019-06-12 13:00:00 20.5 9 Sudeste 27 Sur 0 -- -- 35
2019-06-12 12:00:00 19.2 13 Sudeste 28 Este 0 -- -- 36
2019-06-12 11:00:00 17.7 15 Sudeste 31 Sudeste 0 -- -- 37
2019-06-12 10:00:00 15.3 16 Sudeste 30 Este 0 -- -- 49
2019-06-12 09:00:00 13 15 Sudeste 30 Este 0 -- -- 58
2019-06-12 08:00:00 10.5 15 Sudeste 28 Sudeste 0 -- -- 65
2019-06-12 07:00:00 9.7 12 Este 20 Este 0 -- -- 63
2019-06-12 06:00:00 9.8 9 Este 20 Este 0 -- -- 59
2019-06-12 05:00:00 10.3 10 Este 23 Este 0 -- -- 60
2019-06-12 04:00:00 10.8 8 Este 17 Este 0 -- -- 70
2019-06-12 03:00:00 11 8 Este 15 Este 0 -- -- 66
2019-06-12 02:00:00 12.3 8 Este 15 Este 0 -- -- 60
2019-06-12 01:00:00 13.2 6 Este 16 Norte 0 -- -- 53
2019-06-12 00:00:00 13.1 4 Nordeste 13 Norte 0 -- -- 40
2019-06-11 23:00:00 15.2 4 Nordeste 11 Norte 0 -- -- 36
2019-06-11 22:00:00 17.2 6 Norte 17 Norte 0 -- -- 33
2019-06-11 21:00:00 18.7 10 Norte 23 Norte 0 -- -- 28
2019-06-11 20:00:00 19.3 14 Norte 31 Norte 0 -- -- 30
2019-06-11 19:00:00 19.6 10 Norte 27 Nordeste 0 -- -- 32
2019-06-11 18:00:00 19.7 11 Norte 33 Norte 0 -- -- 34
2019-06-11 17:00:00 21.9 15 Norte 34 Norte 0 -- -- 31
2019-06-11 16:00:00 22 17 Norte 37 Norte 0 -- -- 34
2019-06-11 15:00:00 21.1 17 Norte 37 Norte 0 -- -- 35
2019-06-11 14:00:00 21.9 12 Norte 28 Noroeste 0 -- -- 35
2019-06-11 13:00:00 21.5 9 Norte 28 Noroeste 0 -- -- 34
2019-06-11 12:00:00 21.4 9 Noroeste 20 Norte 0 -- -- 34
2019-06-11 11:00:00 18.9 8 Noroeste 17 Noroeste 0 -- -- 37
2019-06-11 10:00:00 16.8 3 Oeste 10 Sudoeste 0 -- -- 40
2019-06-11 09:00:00 13.2 4 Sudoeste 10 Sur 0 -- -- 44
2019-06-11 08:00:00 11 0 Calma 5 Este 0 -- -- 52
2019-06-11 07:00:00 10.5 3 Nordeste 7 Nordeste 0 -- -- 51
2019-06-11 06:00:00 11.5 2 Este 5 Nordeste 0 -- -- 48
2019-06-11 05:00:00 11.9 2 Este 6 Nordeste 0 -- -- 47
2019-06-11 04:00:00 13 2 Este 7 Este 0 -- -- 45
2019-06-11 03:00:00 13.8 3 Nordeste 8 Nordeste 0 -- -- 42
2019-06-11 02:00:00 15.6 0 Calma 3 Oeste 0 -- -- 39
2019-06-11 01:00:00 15.7 2 Este 9 Nordeste 0 -- -- 38
2019-06-11 00:00:00 17.1 5 Nordeste 9 Nordeste 0 -- -- 35
2019-06-10 23:00:00 19.3 4 Nordeste 8 Nordeste 0 -- -- 31
2019-06-10 22:00:00 22.2 2 Norte 10 Noroeste 0 -- -- 28
2019-06-10 21:00:00 23.9 6 Noroeste 25 Noroeste 0 -- -- 25
2019-06-10 20:00:00 25.3 11 Noroeste 27 Noroeste 0 -- -- 22
2019-06-10 19:00:00 27 10 Noroeste 31 Noroeste 0 -- -- 21
2019-06-10 18:00:00 27.6 9 Oeste 30 Noroeste 0 -- -- 22
2019-06-10 17:00:00 27.3 10 Oeste 31 Sudoeste 0 -- -- 24
2019-06-10 16:00:00 26.7 9 Oeste 26 Noroeste 0 -- -- 24
2019-06-10 15:00:00 26 11 Noroeste 33 Oeste 0 -- -- 26
2019-06-10 14:00:00 24.8 10 Sudoeste 27 Oeste 0 -- -- 29
2019-06-10 13:00:00 24.8 9 Oeste 24 Oeste 0 -- -- 28
2019-06-10 12:00:00 23.8 9 Oeste 19 Oeste 0 -- -- 32
2019-06-10 11:00:00 21.8 5 Sudoeste 13 Sudoeste 0 -- -- 38
2019-06-10 10:00:00 18.9 4 Sudoeste 12 Oeste 0 -- -- 41
2019-06-10 09:00:00 15 3 Sur 7 Sudoeste 0 -- -- 46
2019-06-10 08:00:00 12.3 4 Noroeste 10 Noroeste 0 -- -- 53
2019-06-10 07:00:00 11.4 3 Norte 6 Este 0 -- -- 55
2019-06-10 06:00:00 11.7 3 Nordeste 6 Este 0 -- -- 49
2019-06-10 05:00:00 13.1 2 Nordeste 6 Este 0 -- -- 45
2019-06-10 04:00:00 14.7 0 Calma 5 Sudoeste 0 -- -- 42
2019-06-10 03:00:00 16.1 2 Norte 8 Noroeste 0 -- -- 39
2019-06-10 02:00:00 16.6 3 Noroeste 8 Noroeste 0 -- -- 37
2019-06-10 01:00:00 17.4 3 Noroeste 7 Noroeste 0 -- -- 32
2019-06-10 00:00:00 18.5 3 Noroeste 9 Oeste 0 -- -- 29
2019-06-09 23:00:00 20.2 3 Noroeste 11 Oeste 0 -- -- 26
2019-06-09 22:00:00 22.5 5 Oeste 17 Oeste 0 -- -- 23
2019-06-09 21:00:00 24.6 9 Oeste 26 Oeste 0 -- -- 20
2019-06-09 20:00:00 26.2 10 Oeste 27 Oeste 0 -- -- 21
2019-06-09 19:00:00 28.1 11 Oeste 35 Sudoeste 0 -- -- 20
2019-06-09 18:00:00 28.5 10 Oeste 32 Oeste 0 -- -- 23
2019-06-09 17:00:00 28 12 Oeste 36 Oeste 0 -- -- 24
2019-06-09 16:00:00 28.6 11 Oeste 26 Oeste 0 -- -- 23
2019-06-09 15:00:00 27.6 11 Oeste 33 Oeste 0 -- -- 23
2019-06-09 14:00:00 26.9 8 Oeste 24 Sudoeste 0 -- -- 25
2019-06-09 13:00:00 26.2 9 Noroeste 25 Oeste 0 -- -- 25
2019-06-09 12:00:00 24.6 7 Oeste 21 Oeste 0 -- -- 32
2019-06-09 11:00:00 22.3 6 Oeste 12 Noroeste 0 -- -- 41
2019-06-09 10:00:00 19.1 5 Sudoeste 14 Sur 0 -- -- 53
2019-06-09 09:00:00 16.8 5 Sur 14 Sudeste 0 -- -- 58
2019-06-09 08:00:00 14.2 8 Sudeste 17 Sudeste 0 -- -- 67
2019-06-09 07:00:00 13.9 9 Este 23 Sudeste 0 -- -- 67
2019-06-09 06:00:00 14.5 13 Sudeste 30 Este 0 -- -- 65
2019-06-09 05:00:00 15.1 18 Sudeste 36 Sudeste 0 -- -- 63
2019-06-09 04:00:00 15.3 18 Sudeste 34 Sudeste 0 -- -- 62
2019-06-09 03:00:00 15.6 21 Sudeste 37 Sudeste 0 -- -- 59
2019-06-09 02:00:00 16 21 Sudeste 40 Este 0 -- -- 58
2019-06-09 01:00:00 16.3 20 Sudeste 40 Sudeste 0 -- -- 56
2019-06-09 00:00:00 16.8 26 Sudeste 42 Sudeste 0 -- -- 55
2019-06-08 23:00:00 17.4 24 Sudeste 43 Este 0 -- -- 55
2019-06-08 22:00:00 18.6 24 Sudeste 46 Este 0 -- -- 55
2019-06-08 21:00:00 20.5 25 Sudeste 45 Este 0 -- -- 51
2019-06-08 20:00:00 22.6 27 Sudeste 44 Sudeste 0 -- -- 46
2019-06-08 19:00:00 24.4 24 Sudeste 46 Este 0 -- -- 43
2019-06-08 18:00:00 25.1 28 Sudeste 52 Este 0 -- -- 41
2019-06-08 17:00:00 25.3 29 Sudeste 52 Este 0 -- -- 40
2019-06-08 16:00:00 25.6 27 Sudeste 53 Sudeste 0 -- -- 40
2019-06-08 15:00:00 24.9 23 Sudeste 46 Sudeste 0 -- -- 41
2019-06-08 14:00:00 23.9 25 Sudeste 48 Sudeste 0 -- -- 43
2019-06-08 13:00:00 22.5 25 Sudeste 51 Sudeste 0 -- -- 48
2019-06-08 12:00:00 21 26 Sudeste 50 Sudeste 0 -- -- 51
2019-06-08 11:00:00 19.7 27 Sudeste 50 Sudeste 0 -- -- 53
2019-06-08 10:00:00 18.4 28 Sudeste 51 Sudeste 0 -- -- 56
2019-06-08 09:00:00 17 29 Sudeste 50 Sudeste 0 -- -- 60
2019-06-08 08:00:00 15.1 24 Este 43 Sudeste 0 -- -- 57
2019-06-08 07:00:00 14.1 14 Este 30 Este 0 -- -- 52
2019-06-08 06:00:00 14.6 14 Este 28 Sudeste 0 -- -- 48
2019-06-08 05:00:00 14.7 13 Este 24 Sudeste 0 -- -- 39
2019-06-08 04:00:00 15.4 8 Este 23 Nordeste 0 -- -- 31
2019-06-08 03:00:00 15.1 7 Nordeste 18 Este 0 -- -- 30
2019-06-08 02:00:00 14.7 3 Nordeste 13 Este 0 -- -- 31
2019-06-08 01:00:00 15.3 5 Nordeste 16 Nordeste 0 -- -- 31
2019-06-08 00:00:00 16 5 Nordeste 13 Nordeste 0 -- -- 30
2019-06-07 23:00:00 17.9 5 Nordeste 17 Nordeste 0 -- -- 25
2019-06-07 22:00:00 19.2 7 Norte 15 Norte 0 -- -- 24
2019-06-07 21:00:00 20.6 8 Norte 16 Noroeste 0 -- -- 23
2019-06-07 20:00:00 22 5 Noroeste 18 Norte 0 -- -- 22
2019-06-07 19:00:00 23.7 6 Oeste 21 Noroeste 0 -- -- 21
2019-06-07 18:00:00 23.9 7 Oeste 24 Noroeste 0 -- -- 22
2019-06-07 17:00:00 23.5 9 Oeste 29 Noroeste 0 -- -- 20
2019-06-07 16:00:00 22.8 8 Oeste 28 Noroeste 0 -- -- 22
2019-06-07 15:00:00 21.8 9 Oeste 25 Noroeste 0 -- -- 27
2019-06-07 14:00:00 20.8 10 Oeste 28 Noroeste 0 -- -- 28
2019-06-07 13:00:00 19.8 12 Oeste 30 Oeste 0 -- -- 31
2019-06-07 12:00:00 18.3 10 Noroeste 27 Oeste 0 -- -- 37
2019-06-07 11:00:00 16.4 12 Noroeste 31 Noroeste 0 -- -- 47
2019-06-07 10:00:00 14.1 14 Noroeste 33 Noroeste 0 -- -- 61
2019-06-07 09:00:00 13.8 9 Noroeste 20 Noroeste 0 -- -- 78
2019-06-07 08:00:00 14 8 Noroeste 21 Oeste 0.2 -- -- 77
2019-06-07 07:00:00 13.1 2 Sudoeste 7 Sudoeste 0 -- -- 46
2019-06-07 06:00:00 13 2 Oeste 13 Sur 0 -- -- 38
2019-06-07 05:00:00 13.1 5 Sur 11 Sur 0 -- -- 36
2019-06-07 04:00:00 13.3 2 Sur 5 Sudoeste 0 -- -- 33
2019-06-07 03:00:00 14.3 2 Sur 5 Sudoeste 0 -- -- 30
2019-06-07 02:00:00 15.2 0 Calma 9 Sudoeste 0 -- -- 29
2019-06-07 01:00:00 16.8 4 Sur 11 Sur 0 -- -- 25
2019-06-07 00:00:00 17.5 5 Sur 14 Sudoeste 0 -- -- 26
2019-06-06 23:00:00 18.5 5 Sudoeste 17 Sudoeste 0 -- -- 25
2019-06-06 22:00:00 20.6 4 Sudoeste 20 Sudoeste 0 -- -- 22
2019-06-06 21:00:00 23.5 10 Sudoeste 30 Oeste 0 -- -- 18
2019-06-06 20:00:00 24.9 13 Sudoeste 32 Sudoeste 0 -- -- 17
2019-06-06 19:00:00 26.4 14 Oeste 40 Oeste 0 -- -- 17
2019-06-06 18:00:00 26.5 15 Sudoeste 35 Sudoeste 0 -- -- 19
2019-06-06 17:00:00 26.4 15 Sudoeste 33 Sudoeste 0 -- -- 18
2019-06-06 16:00:00 25.3 12 Sudoeste 29 Sur 0 -- -- 21
2019-06-06 15:00:00 24.3 11 Sudoeste 33 Sudoeste 0 -- -- 23
2019-06-06 14:00:00 23 8 Oeste 27 Sur 0 -- -- 29
2019-06-06 13:00:00 21.2 12 Sudoeste 34 Oeste 0 -- -- 28
2019-06-06 12:00:00 19.4 9 Sur 21 Sudoeste 0 -- -- 32
2019-06-06 11:00:00 17.4 8 Sur 16 Sur 0 -- -- 35
2019-06-06 10:00:00 15.8 4 Sudoeste 9 Sudoeste 0 -- -- 39
2019-06-06 09:00:00 13.1 6 Sudeste 12 Sudeste 0 -- -- 45
2019-06-06 08:00:00 8.8 0 Calma 6 Este 0 -- -- 58
2019-06-06 07:00:00 8 4 Nordeste 9 Este 0 -- -- 56
2019-06-06 06:00:00 8.5 4 Nordeste 8 Este 0 -- -- 53
2019-06-06 05:00:00 8.8 5 Nordeste 8 Nordeste 0 -- -- 51
2019-06-06 04:00:00 9.6 5 Nordeste 8 Nordeste 0 -- -- 49
2019-06-06 03:00:00 10.4 4 Nordeste 8 Nordeste 0 -- -- 46
2019-06-06 02:00:00 11.9 3 Este 6 Nordeste 0 -- -- 42
2019-06-06 01:00:00 13.4 3 Nordeste 5 Nordeste 0 -- -- 38
2019-06-06 00:00:00 15 0 Calma 5 Sur 0 -- -- 35
2019-06-05 23:00:00 16.3 2 Norte 6 Noroeste 0 -- -- 32
2019-06-05 22:00:00 17.9 2 Norte 9 Oeste 0 -- -- 30
2019-06-05 21:00:00 19.7 6 Este 20 Noroeste 0 -- -- 28
2019-06-05 20:00:00 20.9 10 Noroeste 36 Noroeste 0 -- -- 25
2019-06-05 19:00:00 21.2 13 Noroeste 28 Noroeste 0 -- -- 26
2019-06-05 18:00:00 22.1 10 Noroeste 36 Noroeste 0 -- -- 25
2019-06-05 17:00:00 22.6 12 Oeste 40 Noroeste 0 -- -- 26
2019-06-05 16:00:00 22.5 15 Noroeste 37 Noroeste 0 -- -- 26
2019-06-05 15:00:00 21.9 17 Noroeste 39 Oeste 0 -- -- 28
2019-06-05 14:00:00 21 17 Noroeste 39 Noroeste 0 -- -- 31
2019-06-05 13:00:00 20.4 16 Noroeste 41 Noroeste 13.4 -- -- 35
2019-06-05 12:00:00 18.6 17 Noroeste 34 Oeste 0 -- -- 40
2019-06-05 11:00:00 16.6 14 Noroeste 33 Oeste 0 -- -- 45
2019-06-05 10:00:00 15.6 15 Oeste 36 Oeste 0 -- -- 49
2019-06-05 09:00:00 14.3 13 Oeste 32 Oeste 0 -- -- 51
2019-06-05 08:00:00 13.3 9 Oeste 30 Oeste 0 -- -- 55
2019-06-05 07:00:00 15.2 9 Oeste 29 Oeste 0 -- -- 55
2019-06-05 06:00:00 16.7 8 Oeste 31 Noroeste 0 -- -- 56
2019-06-05 05:00:00 18.1 9 Oeste 19 Oeste 0 -- -- 57
2019-06-05 04:00:00 18.8 5 Oeste 14 Noroeste 0 -- -- 57
2019-06-05 03:00:00 18.9 4 Noroeste 12 Noroeste 0 -- -- 52
2019-06-05 02:00:00 19.2 0 Calma 16 Noroeste 0 -- -- 49
2019-06-05 01:00:00 20.5 3 Noroeste 12 Noroeste 0 -- -- 45
2019-06-05 00:00:00 22.4 6 Noroeste 20 Noroeste 0 -- -- 41
2019-06-04 23:00:00 23.7 6 Noroeste 17 Noroeste 0 -- -- 34
2019-06-04 22:00:00 25.5 5 Noroeste 25 Noroeste 0 -- -- 32
2019-06-04 21:00:00 27.5 11 Oeste 27 Oeste 0 -- -- 30
2019-06-04 20:00:00 28.4 11 Oeste 38 Sudoeste 0 -- -- 29
2019-06-04 19:00:00 29.8 14 Oeste 33 Sudoeste 0 -- -- 26
2019-06-04 18:00:00 30.9 14 Oeste 37 Oeste 0 -- -- 23
2019-06-04 17:00:00 31.3 15 Oeste 33 Oeste 0 -- -- 22
2019-06-04 16:00:00 31.1 16 Sudoeste 43 Sudoeste 0 -- -- 24
2019-06-04 15:00:00 31 15 Oeste 34 Sudoeste 0 -- -- 22
2019-06-04 14:00:00 30.2 11 Oeste 28 Sudoeste 0 -- -- 23
2019-06-04 13:00:00 29.2 14 Sudoeste 33 Sur 0 -- -- 24
2019-06-04 12:00:00 28.2 12 Sudoeste 35 Oeste 0 -- -- 27
2019-06-04 11:00:00 25.9 9 Sudoeste 22 Sudoeste 0 -- -- 36
2019-06-04 10:00:00 22.6 6 Sudoeste 15 Sudoeste 0 -- -- 37
2019-06-04 09:00:00 19.8 5 Sur 9 Sur 0 -- -- 38
2019-06-04 08:00:00 17.2 4 Sudeste 6 Sudeste 0 -- -- 38
2019-06-04 07:00:00 15.8 2 Sudeste 5 Sudeste 0 -- -- 47
2019-06-04 06:00:00 15.6 2 Sudeste 9 Este 0 -- -- 50
2019-06-04 05:00:00 16.2 5 Nordeste 8 Nordeste 0 -- -- 52
2019-06-04 04:00:00 17.8 2 Nordeste 10 Nordeste 0 -- -- 49
2019-06-04 03:00:00 19.5 3 Norte 15 Noroeste 0 -- -- 38
2019-06-04 02:00:00 20.7 5 Nordeste 11 Nordeste 0 -- -- 38
2019-06-04 01:00:00 21.5 4 Este 25 Sudoeste 0 -- -- 29
2019-06-04 00:00:00 22.2 4 Nordeste 14 Este 0 -- -- 28
2019-06-03 23:00:00 24.5 4 Nordeste 9 Este 0 -- -- 25
2019-06-03 22:00:00 27.9 0 Calma 6 Oeste 0 -- -- 22
2019-06-03 21:00:00 30.2 4 Oeste 15 Sudoeste 0 -- -- 18
2019-06-03 20:00:00 32 7 Oeste 26 Sudoeste 0 -- -- 18
2019-06-03 19:00:00 33.5 10 Sudoeste 28 Sudoeste 0 -- -- 15
2019-06-03 18:00:00 33.7 9 Oeste 27 Sudoeste 0 -- -- 16
2019-06-03 17:00:00 32.2 12 Oeste 27 Sur 0 -- -- 18
2019-06-03 16:00:00 33.6 8 Oeste 27 Oeste 0 -- -- 18
2019-06-03 15:00:00 32.8 9 Oeste 26 Oeste 0 -- -- 18
2019-06-03 14:00:00 32.9 9 Oeste 24 Sudoeste 0 -- -- 19
2019-06-03 13:00:00 31.8 6 Noroeste 17 Noroeste 0 -- -- 21
2019-06-03 12:00:00 28.8 4 Oeste 14 Sudoeste 0 -- -- 26
2019-06-03 11:00:00 25.7 5 Sur 13 Sudoeste 0 -- -- 28
2019-06-03 10:00:00 23.2 6 Sur 14 Sur 0 -- -- 32
2019-06-03 09:00:00 20.1 9 Sudeste 21 Este 0 -- -- 37
2019-06-03 08:00:00 18.5 12 Sudeste 22 Este 0 -- -- 39
2019-06-03 07:00:00 18 12 Sudeste 27 Sudeste 0 -- -- 40
2019-06-03 06:00:00 18.3 13 Sudeste 26 Sudeste 0 -- -- 39
2019-06-03 05:00:00 18.3 17 Sudeste 32 Sudeste 0 -- -- 40
2019-06-03 04:00:00 18.8 14 Sudeste 24 Este 0 -- -- 39
2019-06-03 03:00:00 19.3 11 Este 19 Sudeste 0 -- -- 38
2019-06-03 02:00:00 20.6 5 Sudeste 26 Este 0 -- -- 35
2019-06-03 01:00:00 22.1 15 Este 27 Este 0 -- -- 33
2019-06-03 00:00:00 24.4 9 Sudeste 17 Este 0 -- -- 29
2019-06-02 23:00:00 25.8 8 Sudeste 14 Sudeste 0 -- -- 27
2019-06-02 22:00:00 27.8 6 Sudeste 12 Sudeste 0 -- -- 23
2019-06-02 21:00:00 30.1 4 Sur 11 Sur 0 -- -- 21
2019-06-02 20:00:00 31.5 7 Sudoeste 21 Sur 0 -- -- 19
2019-06-02 19:00:00 33 5 Oeste 19 Oeste 0 -- -- 19
2019-06-02 18:00:00 32.4 9 Sur 21 Sur 0 -- -- 19
2019-06-02 17:00:00 32.5 5 Sur 22 Sur 0 -- -- 18
2019-06-02 16:00:00 33 5 Sudeste 15 Oeste 0 -- -- 20
2019-06-02 15:00:00 32.4 6 Norte 14 Sudoeste 0 -- -- 21
2019-06-02 14:00:00 30.8 6 Sudoeste 15 Sur 0 -- -- 22
2019-06-02 13:00:00 28.6 7 Sur 16 Sur 0 -- -- 23
2019-06-02 12:00:00 26.5 9 Sudeste 26 Sudeste 0 -- -- 27
2019-06-02 11:00:00 24.2 8 Sudeste 20 Este 0 -- -- 29
2019-06-02 10:00:00 20.8 13 Este 30 Este 0 -- -- 35
2019-06-02 09:00:00 18.4 13 Sudeste 30 Sudeste 0 -- -- 37
2019-06-02 08:00:00 16.2 14 Sudeste 31 Este 0 -- -- 41
2019-06-02 07:00:00 15.5 15 Este 31 Este 0 -- -- 41
2019-06-02 06:00:00 16.1 16 Sudeste 32 Sudeste 0 -- -- 41
2019-06-02 05:00:00 16.4 19 Sudeste 36 Este 0 -- -- 40
2019-06-02 04:00:00 16.9 20 Sudeste 36 Este 0 -- -- 41
2019-06-02 03:00:00 17.3 22 Este 37 Este 0 -- -- 41
2019-06-02 02:00:00 18.1 19 Sudeste 32 Este 0 -- -- 41
2019-06-02 01:00:00 19.7 17 Sudeste 29 Este 0 -- -- 40
2019-06-02 00:00:00 22.1 13 Sudeste 23 Este 0 -- -- 34
2019-06-01 23:00:00 23.6 9 Sudeste 18 Sudeste 0 -- -- 33
2019-06-01 22:00:00 25.2 8 Sudeste 14 Sur 0 -- -- 29
2019-06-01 21:00:00 27.6 8 Sur 17 Sudeste 0 -- -- 25
2019-06-01 20:00:00 29.1 10 Sur 24 Sur 0 -- -- 21
2019-06-01 19:00:00 30.2 11 Sudeste 27 Sur 0 -- -- 20
2019-06-01 18:00:00 30.7 11 Sudeste 28 Sudeste 0 -- -- 20
2019-06-01 17:00:00 30.7 6 Sudeste 27 Este 0 -- -- 21
2019-06-01 16:00:00 30.3 9 Sudeste 21 Sudeste 0 -- -- 23
2019-06-01 15:00:00 29.5 6 Sudeste 28 Sudeste 0 -- -- 24
2019-06-01 14:00:00 28.2 10 Sudeste 26 Sudeste 0 -- -- 28
2019-06-01 13:00:00 27.1 12 Sur 26 Sur 0 -- -- 30
2019-06-01 12:00:00 25.4 14 Sudeste 27 Este 0 -- -- 33
2019-06-01 11:00:00 23 14 Sudeste 25 Este 0 -- -- 37
2019-06-01 10:00:00 20.5 13 Sudeste 26 Este 0 -- -- 46
2019-06-01 09:00:00 18.1 11 Sudeste 29 Este 0 -- -- 50
2019-06-01 08:00:00 15.1 15 Este 28 Este 0 -- -- 58
2019-06-01 07:00:00 14.4 12 Este 26 Este 0 -- -- 59
2019-06-01 06:00:00 14.6 13 Este 28 Este 0 -- -- 58
2019-06-01 05:00:00 14.9 14 Este 32 Este 0 -- -- 56
2019-06-01 04:00:00 15.7 19 Sudeste 32 Sudeste 0 -- -- 55
2019-06-01 03:00:00 16.2 18 Sudeste 34 Sudeste 0 -- -- 55
2019-06-01 02:00:00 16.9 18 Sudeste 37 Este 0 -- -- 52
2019-06-01 01:00:00 18.1 18 Sudeste 33 Este 0 -- -- 50
2019-06-01 00:00:00 20.2 18 Este 28 Sudeste 0 -- -- 44
2019-05-31 23:00:00 22.5 7 Sudeste 13 Sudeste 0 -- -- 34
2019-05-31 22:00:00 23.7 6 Sudeste 14 Sur 0 -- -- 32
2019-05-31 21:00:00 25.7 9 Sur 21 Sur 0 -- -- 29
2019-05-31 20:00:00 27.1 12 Sur 22 Sudeste 0 -- -- 26
2019-05-31 19:00:00 28.3 12 Sudeste 27 Sudeste 0 -- -- 23
2019-05-31 18:00:00 28.5 12 Sudeste 29 Sudeste 0 -- -- 23
2019-05-31 17:00:00 28.4 8 Sudeste 30 Sudeste 0 -- -- 22
2019-05-31 16:00:00 28.5 14 Sudeste 35 Oeste 0 -- -- 23
2019-05-31 15:00:00 27.3 11 Sudeste 28 Sudeste 0 -- -- 24
2019-05-31 14:00:00 26.5 12 Sudeste 25 Sudeste 0 -- -- 26
2019-05-31 13:00:00 25.5 12 Sudeste 27 Sudeste 0 -- -- 29
2019-05-31 12:00:00 24.1 12 Sudeste 24 Sur 0 -- -- 32
2019-05-31 11:00:00 22.2 14 Sudeste 31 Sudeste 0 -- -- 39
2019-05-31 10:00:00 20.5 15 Sudeste 27 Este 0 -- -- 45
2019-05-31 09:00:00 18.4 13 Este 23 Este 0 -- -- 51
2019-05-31 08:00:00 15 10 Este 21 Este 0 -- -- 60
2019-05-31 07:00:00 14.2 12 Este 23 Este 0 -- -- 61
2019-05-31 06:00:00 14.2 14 Este 23 Este 0 -- -- 61
2019-05-31 05:00:00 14.8 8 Este 22 Sudeste 0 -- -- 58
2019-05-31 04:00:00 15.7 14 Este 28 Este 0 -- -- 56
2019-05-31 03:00:00 16.3 17 Sudeste 29 Este 0 -- -- 55
2019-05-31 02:00:00 16.9 14 Este 26 Este 0 -- -- 52
2019-05-31 01:00:00 18.1 13 Este 24 Este 0 -- -- 47
2019-05-31 00:00:00 20 13 Este 19 Este 0 -- -- 39
2019-05-30 23:00:00 21.4 5 Sudeste 12 Sudeste 0 -- -- 35
2019-05-30 22:00:00 22.5 8 Sudeste 15 Sur 0 -- -- 33
2019-05-30 21:00:00 24.6 10 Sur 22 Sur 0 -- -- 30
2019-05-30 20:00:00 26.3 11 Sur 20 Sur 0 -- -- 27
2019-05-30 19:00:00 27.4 11 Sudeste 21 Sudeste 0 -- -- 25
2019-05-30 18:00:00 27.8 6 Sur 22 Sudeste 0 -- -- 26
2019-05-30 17:00:00 27.3 12 Sudeste 26 Sudeste 0 -- -- 25
2019-05-30 16:00:00 26.5 8 Sur 26 Sudoeste 0 -- -- 26
2019-05-30 15:00:00 25.7 12 Sudeste 23 Sur 0 -- -- 27
2019-05-30 14:00:00 24.3 11 Sudeste 29 Sudeste 0 -- -- 31
2019-05-30 13:00:00 22.9 10 Sudeste 26 Sudeste 0 -- -- 33
2019-05-30 12:00:00 21.3 11 Sudeste 25 Sudeste 0 -- -- 37
2019-05-30 11:00:00 19.5 11 Sudeste 21 Este 0 -- -- 40
2019-05-30 10:00:00 17.5 8 Este 22 Este 0 -- -- 46
2019-05-30 09:00:00 15.5 9 Este 21 Sudeste 0 -- -- 50
2019-05-30 08:00:00 12.2 4 Este 14 Este 0 -- -- 61
2019-05-30 07:00:00 11 2 Nordeste 8 Nordeste 0 -- -- 62
2019-05-30 06:00:00 12 3 Nordeste 9 Este 0 -- -- 58
2019-05-30 05:00:00 13.1 4 Este 15 Este 0 -- -- 57
2019-05-30 04:00:00 13.7 9 Este 22 Este 0 -- -- 54
2019-05-30 03:00:00 14.8 10 Sudeste 17 Sudeste 0 -- -- 51
2019-05-30 02:00:00 16.2 4 Este 19 Este 0 -- -- 47
2019-05-30 01:00:00 17.2 8 Este 23 Nordeste 0 -- -- 44
2019-05-30 00:00:00 19 12 Nordeste 27 Nordeste 0 -- -- 39
2019-05-29 23:00:00 19.8 13 Norte 25 Norte 0 -- -- 36
2019-05-29 22:00:00 21.2 10 Norte 26 Norte 0 -- -- 33
2019-05-29 21:00:00 23 12 Norte 34 Nordeste 0 -- -- 31
2019-05-29 20:00:00 24.4 15 Norte 33 Norte 0 -- -- 29
2019-05-29 19:00:00 26.2 12 Nordeste 30 Norte 0 -- -- 26
2019-05-29 18:00:00 26.7 13 Norte 31 Nordeste 0 -- -- 27
2019-05-29 17:00:00 26.5 12 Norte 29 Norte 0 -- -- 26
2019-05-29 16:00:00 25.8 11 Norte 26 Nordeste 0 -- -- 26
2019-05-29 15:00:00 25 11 Norte 22 Norte 0 -- -- 25
2019-05-29 14:00:00 23.8 8 Nordeste 26 Nordeste 0 -- -- 23
2019-05-29 13:00:00 22.2 8 Norte 22 Este 0 -- -- 26
2019-05-29 12:00:00 20.5 7 Nordeste 21 Noroeste 0 -- -- 28
2019-05-29 11:00:00 18.1 7 Nordeste 27 Norte 0 -- -- 33
2019-05-29 10:00:00 15.5 14 Norte 27 Nordeste 0 -- -- 40
2019-05-29 09:00:00 13.4 9 Nordeste 28 Nordeste 0 -- -- 46
2019-05-29 08:00:00 10.3 9 Norte 27 Nordeste 0 -- -- 55
2019-05-29 07:00:00 10.3 5 Nordeste 17 Nordeste 0 -- -- 54
2019-05-29 06:00:00 11.1 5 Nordeste 26 Nordeste 0 -- -- 52
2019-05-29 05:00:00 11.9 6 Norte 17 Norte 0 -- -- 52
2019-05-29 04:00:00 12.6 9 Norte 22 Nordeste 0 -- -- 50
2019-05-29 03:00:00 13.9 11 Norte 25 Nordeste 0 -- -- 48
2019-05-29 02:00:00 15.1 14 Norte 23 Nordeste 0 -- -- 43
2019-05-29 01:00:00 16.6 10 Nordeste 28 Norte 0 -- -- 42
2019-05-29 00:00:00 18 12 Norte 30 Norte 0 -- -- 39
2019-05-28 23:00:00 19.7 15 Norte 28 Nordeste 0 -- -- 37
2019-05-28 22:00:00 21.6 8 Norte 17 Norte 0 -- -- 28
2019-05-28 21:00:00 23.4 6 Nordeste 26 Norte 0 -- -- 26
2019-05-28 20:00:00 24.7 13 Norte 31 Norte 0 -- -- 23
2019-05-28 19:00:00 26.4 14 Norte 32 Norte 0 -- -- 21
2019-05-28 18:00:00 27.3 14 Noroeste 30 Norte 0 -- -- 19
2019-05-28 17:00:00 27.4 13 Noroeste 30 Norte 0 -- -- 19
2019-05-28 16:00:00 27.5 12 Noroeste 31 Norte 0 -- -- 21
2019-05-28 15:00:00 26.6 12 Norte 29 Noroeste 0 -- -- 23
2019-05-28 14:00:00 26.1 10 Norte 29 Norte 0 -- -- 27
2019-05-28 13:00:00 25 10 Norte 27 Norte 0 -- -- 31
2019-05-28 12:00:00 24.7 10 Norte 22 Norte 0 -- -- 35
2019-05-28 11:00:00 23.7 8 Norte 15 Norte 0 -- -- 40
2019-05-28 10:00:00 20.9 5 Norte 12 Norte 0 -- -- 50
2019-05-28 09:00:00 16.4 6 Norte 13 Nordeste 0 -- -- 64
2019-05-28 08:00:00 14 2 Norte 10 Norte 0 -- -- 69
2019-05-28 07:00:00 13.8 4 Nordeste 10 Este 0 -- -- 69
2019-05-28 06:00:00 14.6 3 Nordeste 9 Nordeste 0 -- -- 66
2019-05-28 05:00:00 15.3 2 Nordeste 9 Este 0 -- -- 64
2019-05-28 04:00:00 16.1 4 Este 9 Sudeste 0 -- -- 61
2019-05-28 03:00:00 17.1 4 Este 13 Este 0 -- -- 58
2019-05-28 02:00:00 18.5 5 Norte 24 Este 0 -- -- 52
2019-05-28 01:00:00 19.5 9 Nordeste 21 Este 0 -- -- 47
2019-05-28 00:00:00 21 8 Nordeste 23 Norte 0 -- -- 43
2019-05-27 23:00:00 21.8 7 Norte 16 Nordeste 0 -- -- 38
2019-05-27 22:00:00 23.6 4 Norte 12 Norte 0 -- -- 34
2019-05-27 21:00:00 25.7 2 Norte 17 Noroeste 0 -- -- 32
2019-05-27 20:00:00 27 9 Noroeste 25 Noroeste 0 -- -- 29
2019-05-27 19:00:00 28.2 9 Noroeste 24 Norte 0 -- -- 28
2019-05-27 18:00:00 28.2 10 Noroeste 30 Oeste 0 -- -- 26
2019-05-27 17:00:00 28.8 16 Noroeste 35 Noroeste 0 -- -- 26
2019-05-27 16:00:00 29 15 Noroeste 33 Oeste 0 -- -- 28
2019-05-27 15:00:00 27.5 14 Noroeste 33 Norte 0 -- -- 29
2019-05-27 14:00:00 27.6 10 Noroeste 30 Noroeste 0 -- -- 30
2019-05-27 13:00:00 25.8 9 Norte 29 Norte 0 -- -- 32
2019-05-27 12:00:00 24.4 9 Norte 24 Noroeste 0 -- -- 34
2019-05-27 11:00:00 22.2 7 Norte 16 Norte 0 -- -- 41
2019-05-27 10:00:00 18.1 6 Noroeste 14 Norte 0 -- -- 49
2019-05-27 09:00:00 15.4 3 Norte 9 Noroeste 0 -- -- 54
2019-05-27 08:00:00 11.6 0 Calma 7 Nordeste 0 -- -- 63
2019-05-27 07:00:00 11.1 3 Nordeste 8 Nordeste 0 -- -- 59
2019-05-27 06:00:00 11.1 2 Norte 7 Nordeste 0 -- -- 59
2019-05-27 05:00:00 12.1 3 Nordeste 10 Nordeste 0 -- -- 55
2019-05-27 04:00:00 13 5 Nordeste 11 Norte 0 -- -- 52
2019-05-27 03:00:00 14.1 4 Nordeste 9 Este 0 -- -- 47
2019-05-27 02:00:00 16 0 Calma 12 Este 0 -- -- 42
2019-05-27 01:00:00 17.8 4 Este 15 Nordeste 0 -- -- 37
2019-05-27 00:00:00 18.2 4 Nordeste 10 Nordeste 0 -- -- 35
2019-05-26 23:00:00 19.5 4 Norte 12 Norte 0 -- -- 32
2019-05-26 22:00:00 21.3 3 Nordeste 22 Nordeste 0 -- -- 29
2019-05-26 21:00:00 23.2 13 Norte 30 Norte 0 -- -- 26
2019-05-26 20:00:00 24.3 14 Norte 33 Norte 0 -- -- 25
2019-05-26 19:00:00 25.9 14 Norte 30 Noroeste 0 -- -- 23
2019-05-26 18:00:00 25.9 11 Norte 30 Noroeste 0 -- -- 24
2019-05-26 17:00:00 25.4 12 Norte 33 Norte 0 -- -- 27
2019-05-26 16:00:00 24.8 15 Norte 31 Norte 0 -- -- 27
2019-05-26 15:00:00 24 14 Norte 32 Norte 0 -- -- 30
2019-05-26 14:00:00 23.2 12 Norte 27 Nordeste 0 -- -- 30
2019-05-26 13:00:00 21.9 12 Norte 26 Norte 0 -- -- 33
2019-05-26 12:00:00 21.1 10 Norte 21 Norte 0 -- -- 35
2019-05-26 11:00:00 19.7 6 Noroeste 17 Norte 0 -- -- 40
2019-05-26 10:00:00 17.4 5 Norte 15 Norte 0 -- -- 50
2019-05-26 09:00:00 14 6 Nordeste 20 Nordeste 0 -- -- 61
2019-05-26 08:00:00 9.9 7 Norte 15 Norte 0 -- -- 76
2019-05-26 07:00:00 10.7 5 Norte 20 Nordeste 0 -- -- 72
2019-05-26 06:00:00 11.4 9 Norte 17 Norte 0 -- -- 68
2019-05-26 05:00:00 12.6 6 Norte 14 Este 0 -- -- 65
2019-05-26 04:00:00 12.8 5 Nordeste 12 Nordeste 0 -- -- 63
2019-05-26 03:00:00 13.7 3 Nordeste 10 Norte 0 -- -- 60
2019-05-26 02:00:00 14.8 5 Nordeste 13 Nordeste 0 -- -- 57
2019-05-26 01:00:00 15.8 6 Nordeste 12 Nordeste 0 -- -- 54
2019-05-26 00:00:00 17.7 4 Nordeste 15 Norte 0 -- -- 48
2019-05-25 23:00:00 19.2 5 Nordeste 17 Nordeste 0 -- -- 43
2019-05-25 22:00:00 21 12 Norte 26 Norte 0 -- -- 39
2019-05-25 21:00:00 22.4 12 Norte 32 Norte 0 -- -- 36
2019-05-25 20:00:00 22.5 2 Nordeste 12 Sudeste 0 -- -- 36
2019-05-25 19:00:00 22.5 4 Sudeste 31 Sudeste 0 -- -- 36
2019-05-25 18:00:00 23.9 8 Norte 26 Norte 0 -- -- 31
2019-05-25 17:00:00 24.4 9 Norte 22 Norte 0 -- -- 32
2019-05-25 16:00:00 25 9 Norte 19 Norte 0 -- -- 32
2019-05-25 15:00:00 24.4 8 Norte 27 Norte 0 -- -- 33
2019-05-25 14:00:00 22.7 4 Sur 22 Este 0 -- -- 37
2019-05-25 13:00:00 21.7 7 Norte 17 Nordeste 0 -- -- 39
2019-05-25 12:00:00 20 7 Norte 18 Norte 0 -- -- 43
2019-05-25 11:00:00 18.2 7 Nordeste 19 Nordeste 0 -- -- 46
2019-05-25 10:00:00 16.3 9 Norte 25 Nordeste 0 -- -- 52
2019-05-25 09:00:00 14.2 10 Norte 20 Norte 0 -- -- 61
2019-05-25 08:00:00 10 5 Norte 18 Norte 0 -- -- 76
2019-05-25 07:00:00 10.1 11 Nordeste 21 Nordeste 0 -- -- 75
2019-05-25 06:00:00 10.5 9 Nordeste 18 Norte 0 -- -- 73
2019-05-25 05:00:00 10.6 5 Norte 12 Norte 0 -- -- 73
2019-05-25 04:00:00 10.6 3 Nordeste 8 Norte 0 -- -- 72
2019-05-25 03:00:00 12 0 Calma 5 Nordeste 0 -- -- 66
2019-05-25 02:00:00 13.3 2 Nordeste 8 Nordeste 0 -- -- 63
2019-05-25 01:00:00 14.6 3 Nordeste 8 Este 0 -- -- 72
2019-05-25 00:00:00 15.5 3 Este 13 Sudeste 0 -- -- 71
2019-05-24 23:00:00 16.5 5 Este 10 Sudeste 0 -- -- 66
2019-05-24 22:00:00 17 7 Sudeste 21 Este 0 -- -- 63
2019-05-24 21:00:00 20.1 9 Este 22 Nordeste 0 -- -- 49
2019-05-24 20:00:00 21.8 9 Norte 25 Nordeste 0 -- -- 38
2019-05-24 19:00:00 22 9 Norte 32 Este 0 -- -- 43
2019-05-24 18:00:00 22.6 13 Nordeste 30 Nordeste 0 -- -- 43
2019-05-24 17:00:00 21.2 11 Este 39 Este 0 -- -- 50
2019-05-24 16:00:00 19.8 17 Este 49 Este 0 -- -- 52
2019-05-24 15:00:00 24.6 15 Norte 35 Norte 0 -- -- 41
2019-05-24 14:00:00 24.9 7 Noroeste 15 Noroeste 0 -- -- 36
2019-05-24 13:00:00 23.7 8 Norte 18 Norte 0 -- -- 41
2019-05-24 12:00:00 22.6 5 Sudeste 16 Este 0 -- -- 42
2019-05-24 11:00:00 21 3 Noroeste 8 Noroeste 0 -- -- 43
2019-05-24 10:00:00 18.7 2 Noroeste 6 Oeste 0 -- -- 46
2019-05-24 09:00:00 15.1 0 Calma 4 Sur 0 -- -- 54
2019-05-24 08:00:00 14.6 2 Sur 5 Sur 0 -- -- 53
2019-05-24 07:00:00 14.7 2 Sur 6 Sudoeste 0 -- -- 51
2019-05-24 06:00:00 15.5 0 Calma 3 Sur 0 -- -- 47
2019-05-24 05:00:00 15 0 Calma 6 Nordeste 0 -- -- 50
2019-05-24 04:00:00 16.2 0 Calma 5 Sudeste 0 -- -- 46
2019-05-24 03:00:00 16.4 3 Sur 14 Oeste 0 -- -- 45
2019-05-24 02:00:00 18 3 Nordeste 9 Nordeste 0 -- -- 41
2019-05-24 01:00:00 19.2 3 Nordeste 8 Norte 0 -- -- 38
2019-05-24 00:00:00 20.3 3 Norte 6 Norte 0 -- -- 37
2019-05-23 23:00:00 21.7 0 Calma 6 Oeste 0 -- -- 35
2019-05-23 22:00:00 23.5 3 Noroeste 11 Noroeste 0 -- -- 33
2019-05-23 21:00:00 25.8 3 Oeste 18 Oeste 0 -- -- 30
2019-05-23 20:00:00 26.8 5 Oeste 15 Oeste 0 -- -- 27
2019-05-23 19:00:00 28.7 8 Oeste 21 Oeste 0 -- -- 24
2019-05-23 18:00:00 29 6 Oeste 23 Oeste 0 -- -- 24
2019-05-23 17:00:00 28.6 9 Oeste 23 Oeste 0 -- -- 26
2019-05-23 16:00:00 28.5 8 Oeste 24 Sudoeste 0 -- -- 25
2019-05-23 15:00:00 28.3 8 Oeste 22 Oeste 0 -- -- 26
2019-05-23 14:00:00 27.5 5 Sudoeste 19 Sudoeste 0 -- -- 28
2019-05-23 13:00:00 25.8 5 Sudoeste 14 Oeste 0 -- -- 31
2019-05-23 12:00:00 24.6 5 Sudoeste 13 Sur 0 -- -- 35
2019-05-23 11:00:00 21.7 6 Sudoeste 15 Sur 0 -- -- 41
2019-05-23 10:00:00 18.5 9 Sudeste 14 Sudeste 0 -- -- 54
2019-05-23 09:00:00 16.4 7 Sudeste 14 Sudeste 0 -- -- 62
2019-05-23 08:00:00 14.9 4 Este 15 Este 0 -- -- 69
2019-05-23 07:00:00 14.3 8 Este 18 Este 0 -- -- 70
2019-05-23 06:00:00 14.8 9 Este 20 Este 0 -- -- 66
2019-05-23 05:00:00 15.1 9 Este 19 Este 0 -- -- 62
2019-05-23 04:00:00 15.7 2 Nordeste 12 Noroeste 0 -- -- 57
2019-05-23 03:00:00 16.8 7 Noroeste 18 Noroeste 0 -- -- 51
2019-05-23 02:00:00 18 4 Este 10 Este 0 -- -- 50
2019-05-23 01:00:00 18.4 6 Sudeste 15 Este 0 -- -- 48
2019-05-23 00:00:00 18.4 3 Nordeste 9 Nordeste 0 -- -- 43
2019-05-22 23:00:00 19.8 2 Nordeste 7 Norte 0 -- -- 41
2019-05-22 22:00:00 22.1 2 Nordeste 6 Nordeste 0 -- -- 36
2019-05-22 21:00:00 24.3 2 Norte 7 Noroeste 0 -- -- 30
2019-05-22 20:00:00 25.9 4 Norte 15 Noroeste 0 -- -- 26
2019-05-22 19:00:00 27.2 6 Noroeste 19 Noroeste 0 -- -- 25
2019-05-22 18:00:00 26.9 6 Sur 21 Noroeste 0 -- -- 25
2019-05-22 17:00:00 26.9 11 Noroeste 22 Noroeste 0 -- -- 26
2019-05-22 16:00:00 27.2 7 Sudoeste 15 Sudoeste 0 -- -- 25
2019-05-22 15:00:00 26.9 7 Noroeste 23 Sur 0 -- -- 27
2019-05-22 14:00:00 24.4 6 Sur 16 Sur 3.8 -- -- 32
2019-05-22 13:00:00 23.9 7 Sudoeste 17 Sudeste 0 -- -- 38
2019-05-22 12:00:00 21.5 7 Sudeste 20 Sudeste 0 -- -- 46
2019-05-22 11:00:00 19.3 8 Sudeste 17 Sudeste 0 -- -- 54
2019-05-22 10:00:00 17.3 8 Sudeste 19 Este 0 -- -- 60
2019-05-22 09:00:00 15 12 Sudeste 21 Este 0 -- -- 67
2019-05-22 08:00:00 12.6 11 Este 21 Este 0 -- -- 75
2019-05-22 07:00:00 12.4 10 Este 23 Este 0 -- -- 75
2019-05-22 06:00:00 12.9 11 Este 27 Sudeste 0 -- -- 74
2019-05-22 05:00:00 13.2 14 Este 28 Sudeste 0 -- -- 73
2019-05-22 04:00:00 13 18 Este 30 Este 0 -- -- 75
2019-05-22 03:00:00 13.2 18 Este 33 Sudeste 0 -- -- 75
2019-05-22 02:00:00 14 17 Este 30 Este 0 -- -- 72
2019-05-22 01:00:00 14.5 17 Sudeste 33 Este 0 -- -- 71
2019-05-22 00:00:00 15.5 15 Sudeste 34 Sudeste 0 -- -- 66
2019-05-21 23:00:00 16.4 17 Este 35 Sudeste 0 -- -- 68
2019-05-21 22:00:00 18.8 19 Este 39 Sudeste 0 -- -- 55
2019-05-21 21:00:00 21.1 6 Este 21 Sudeste 0 -- -- 38
2019-05-21 20:00:00 22.4 6 Sur 17 Sudoeste 0 -- -- 31
2019-05-21 19:00:00 23.3 6 Sur 20 Oeste 0 -- -- 29
2019-05-21 18:00:00 23.7 4 Sur 13 Noroeste 0 -- -- 27
2019-05-21 17:00:00 24.3 4 Oeste 13 Oeste 0 -- -- 27
2019-05-21 16:00:00 24.2 2 Oeste 18 Noroeste 0 -- -- 28
2019-05-21 15:00:00 24.4 4 Norte 15 Sudoeste 0 -- -- 28
2019-05-21 14:00:00 23.1 7 Sudoeste 17 Oeste 0 -- -- 29
2019-05-21 13:00:00 22.3 5 Sudoeste 14 Sudoeste 0 -- -- 32
2019-05-21 12:00:00 21.9 6 Oeste 15 Oeste 0 -- -- 33
2019-05-21 11:00:00 21.1 6 Sudoeste -- -- -- -- -- 35
2019-05-21 10:00:00 18.3 5 Este 13 Sur 0 -- -- 41
2019-05-21 09:00:00 14.6 3 Oeste 6 Oeste 0 -- -- 62
2019-05-21 08:00:00 12 3 Este 10 Nordeste 0 -- -- 68
2019-05-21 07:00:00 11.9 2 Este 10 Nordeste 0 -- -- 61
2019-05-21 06:00:00 12 2 Nordeste 8 Sur 0 -- -- 50
2019-05-21 05:00:00 13.1 2 Nordeste 5 Nordeste 0 -- -- 47
2019-05-21 04:00:00 14.1 0 Calma 9 Este 0 -- -- 43
2019-05-21 03:00:00 14.1 4 Sur 8 Sur 0 -- -- 43
2019-05-21 02:00:00 14.5 0 Calma 5 Norte 0 -- -- 42
2019-05-21 01:00:00 15.9 0 Calma 6 Nordeste 0 -- -- 37
2019-05-21 00:00:00 16.5 3 Nordeste 12 Nordeste 0 -- -- 36
2019-05-20 23:00:00 17.6 5 Norte 12 Norte 0 -- -- 34
2019-05-20 22:00:00 18.4 4 Sur 10 Sudoeste 0 -- -- 33
2019-05-20 21:00:00 19.9 5 Sudoeste 19 Oeste 0 -- -- 31
2019-05-20 20:00:00 21.8 3 Oeste 17 Noroeste 0 -- -- 27
2019-05-20 19:00:00 22.8 6 Noroeste 19 Sudoeste 0 -- -- 24
2019-05-20 18:00:00 23.5 4 Sudoeste 21 Sudoeste 0 -- -- 22
2019-05-20 17:00:00 23.1 13 Oeste 29 Sudoeste 0 -- -- 22
2019-05-20 16:00:00 23.6 8 Oeste 24 Sudoeste 0 -- -- 23
2019-05-20 15:00:00 23.1 6 Oeste 27 Oeste 0 -- -- 24
2019-05-20 14:00:00 22 9 Sudoeste 23 Sudoeste 0 -- -- 24
2019-05-20 13:00:00 20.7 6 Norte 18 Sudoeste 0 -- -- 29
2019-05-20 12:00:00 19 8 Sudeste 17 Sudeste 0 -- -- 34
2019-05-20 11:00:00 16.7 9 Sudeste 19 Sur 0 -- -- 43
2019-05-20 10:00:00 13.8 9 Sudeste 16 Sudeste 0 -- -- 52
2019-05-20 09:00:00 10.3 0 Calma 5 Sudoeste 0 -- -- 61
2019-05-20 08:00:00 5.7 0 Calma 6 Sudoeste 0 -- -- 73
2019-05-20 07:00:00 7.1 0 Calma 5 Norte 0 -- -- 71
2019-05-20 06:00:00 7.7 0 Calma 11 Norte 0 -- -- 67
2019-05-20 05:00:00 8.7 2 Nordeste 14 Este 0 -- -- 64
2019-05-20 04:00:00 9.1 7 Este 15 Este 0 -- -- 61
2019-05-20 03:00:00 10.3 3 Norte 16 Este 0 -- -- 51
2019-05-20 02:00:00 11.2 7 Este 16 Este 0 -- -- 47
2019-05-20 01:00:00 10 0 Calma 17 Norte 0 -- -- 45
2019-05-20 00:00:00 10.3 4 Nordeste 8 Este 0 -- -- 45
2019-05-19 23:00:00 12 3 Nordeste 7 Norte 0 -- -- 42
2019-05-19 22:00:00 14.5 2 Nordeste 9 Norte 0 -- -- 38
2019-05-19 21:00:00 17.2 5 Norte 19 Noroeste 0 -- -- 29
2019-05-19 20:00:00 18.4 3 Norte 24 Norte 0 -- -- 27
2019-05-19 19:00:00 22.6 10 Noroeste 24 Noroeste 0 -- -- 24
2019-05-19 18:00:00 19.7 12 Norte 24 Noroeste 0 -- -- 28
2019-05-19 17:00:00 19.7 11 Norte 22 Norte 0 -- -- 30
2019-05-19 16:00:00 20.2 11 Noroeste 24 Noroeste 0 -- -- 29
2019-05-19 15:00:00 19.3 8 Noroeste 22 Noroeste 0 -- -- 31
2019-05-19 14:00:00 19.9 5 Noroeste 23 Noroeste 0 -- -- 30
2019-05-19 13:00:00 17.6 8 Noroeste 21 Oeste 0 -- -- 34
2019-05-19 12:00:00 18.2 8 Norte 19 Norte 0 -- -- 35
2019-05-19 11:00:00 17.1 6 Noroeste 17 Noroeste 0 -- -- 39
2019-05-19 10:00:00 15.3 4 Norte 13 Norte 0 -- -- 44
2019-05-19 09:00:00 11.5 3 Noroeste 5 Norte 0 -- -- 55
2019-05-19 08:00:00 6.2 0 Calma 6 Norte 0 -- -- 70
2019-05-19 07:00:00 5.5 2 Nordeste 5 Nordeste 0 -- -- 69
2019-05-19 06:00:00 5.5 2 Nordeste 7 Norte 0 -- -- 68
2019-05-19 05:00:00 6.3 3 Nordeste 6 Sudeste 0 -- -- 65
2019-05-19 04:00:00 7.3 3 Este 8 Norte 0 -- -- 59
2019-05-19 03:00:00 9.4 6 Nordeste 12 Norte 0 -- -- 54
2019-05-19 02:00:00 8.8 2 Nordeste 8 Este 0 -- -- 56
2019-05-19 01:00:00 9.8 2 Nordeste 7 Nordeste 0 -- -- 50
2019-05-19 00:00:00 11.3 3 Nordeste 9 Norte 0 -- -- 44
2019-05-18 23:00:00 12.7 5 Norte 14 Noroeste 0 -- -- 38
2019-05-18 22:00:00 14.3 8 Noroeste 19 Noroeste 0 -- -- 35
2019-05-18 21:00:00 15.5 9 Noroeste 22 Oeste 0 -- -- 32
2019-05-18 20:00:00 17.1 10 Noroeste 22 Noroeste 0 -- -- 27
2019-05-18 19:00:00 20.4 12 Noroeste 28 Noroeste 0 -- -- 23
2019-05-18 18:00:00 21.1 11 Noroeste 29 Noroeste 0 -- -- 23
2019-05-18 17:00:00 19.7 10 Noroeste 28 Noroeste 0 -- -- 24
2019-05-18 16:00:00 18.8 12 Noroeste 29 Noroeste 0 -- -- 26
2019-05-18 15:00:00 17.5 13 Noroeste 31 Noroeste 0 -- -- 28
2019-05-18 14:00:00 17.9 11 Noroeste 27 Noroeste 0 -- -- 32
2019-05-18 13:00:00 17.8 11 Noroeste 32 Noroeste 0 -- -- 34
2019-05-18 12:00:00 15.9 12 Norte 28 Noroeste 0 -- -- 39
2019-05-18 11:00:00 13.5 11 Norte 22 Norte 0 -- -- 44
2019-05-18 10:00:00 12.5 10 Noroeste 22 Norte 0 -- -- 51
2019-05-18 09:00:00 10.9 9 Norte 19 Norte 0 -- -- 58
2019-05-18 08:00:00 9.7 5 Norte 10 Noroeste 0 -- -- 65
2019-05-18 07:00:00 9.5 3 Norte 11 Norte 0 -- -- 63
2019-05-18 06:00:00 10 6 Norte 13 Norte 0 -- -- 60
2019-05-18 05:00:00 10.3 4 Norte 9 Norte 0 -- -- 59
2019-05-18 04:00:00 10.3 2 Noroeste 5 Nordeste 0 -- -- 62
2019-05-18 03:00:00 10.4 2 Nordeste 4 Este 0 -- -- 61
2019-05-18 02:00:00 10.2 0 Calma 5 Sur 0 -- -- 60
2019-05-18 01:00:00 10.3 0 Calma 10 Norte 0 -- -- 60
2019-05-18 00:00:00 10.9 3 Nordeste 6 Norte 0 -- -- 58
2019-05-17 23:00:00 12.5 2 Nordeste 12 Nordeste 0 -- -- 53
2019-05-17 22:00:00 13.8 5 Nordeste 13 Nordeste 0 -- -- 47
2019-05-17 21:00:00 15.3 6 Norte 22 Norte 0 -- -- 43
2019-05-17 20:00:00 16.6 13 Norte 27 Norte 0 -- -- 39
2019-05-17 19:00:00 17.5 14 Norte 42 Noroeste 0 -- -- 38
2019-05-17 18:00:00 19.2 17 Norte 40 Noroeste 0 -- -- 34
2019-05-17 17:00:00 19.9 16 Noroeste 40 Noroeste 0 -- -- 34
2019-05-17 16:00:00 18.1 15 Noroeste 46 Noroeste 0 -- -- 38
2019-05-17 15:00:00 17.4 22 Noroeste 50 Noroeste 0 -- -- 39
2019-05-17 14:00:00 18.9 24 Noroeste 50 Noroeste 0 -- -- 35
2019-05-17 13:00:00 18 20 Noroeste 49 Oeste 0 -- -- 38
2019-05-17 12:00:00 17.2 24 Noroeste 42 Noroeste 0 -- -- 40
2019-05-17 11:00:00 15.7 21 Noroeste 45 Noroeste 0 -- -- 43
2019-05-17 10:00:00 14.8 16 Noroeste 37 Noroeste 0 -- -- 47
2019-05-17 09:00:00 12.4 12 Noroeste 32 Oeste 0 -- -- 55
2019-05-17 08:00:00 10 13 Noroeste 28 Noroeste 0 -- -- 63
2019-05-17 07:00:00 9.6 10 Noroeste 28 Noroeste 0 -- -- 63
2019-05-17 06:00:00 10.5 10 Noroeste 28 Noroeste 0 -- -- 63
2019-05-17 05:00:00 10.8 12 Noroeste 32 Noroeste 0 -- -- 65
2019-05-17 04:00:00 11.6 13 Noroeste 29 Noroeste 0 -- -- 62
2019-05-17 03:00:00 12.5 19 Noroeste 43 Noroeste 0 -- -- 59
2019-05-17 02:00:00 13.9 19 Noroeste 50 Noroeste 0 -- -- 52
2019-05-17 01:00:00 17.6 20 Oeste 44 Oeste 0 -- -- 49
2019-05-17 00:00:00 20 14 Oeste 40 Sudoeste 0 -- -- 37